createdAt,value
2018-12-09T00:00:40.545Z,1.90
2018-12-09T00:03:08.457Z,2.30
2018-12-09T00:05:36.016Z,2.20
2018-12-09T00:08:03.694Z,2.20
2018-12-09T00:10:31.551Z,2.80
2018-12-09T00:12:59.248Z,3.07
2018-12-09T00:15:26.802Z,3.10
2018-12-09T00:17:54.358Z,2.93
2018-12-09T00:20:21.918Z,2.77
2018-12-09T00:22:49.639Z,2.93
2018-12-09T00:25:17.231Z,2.90
2018-12-09T00:27:44.976Z,3.33
2018-12-09T00:30:12.531Z,2.90
2018-12-09T00:32:40.419Z,1.47
2018-12-09T00:35:07.973Z,1.33
2018-12-09T00:37:35.531Z,1.30
2018-12-09T00:40:03.576Z,1.60
2018-12-09T00:42:31.337Z,1.63
2018-12-09T00:44:59.168Z,2.03
2018-12-09T00:47:26.812Z,1.93
2018-12-09T00:49:54.399Z,1.80
2018-12-09T00:52:21.943Z,1.40
2018-12-09T00:54:49.533Z,1.60
2018-12-09T00:57:17.310Z,2.43
2018-12-09T00:59:45.043Z,2.40
2018-12-09T01:02:12.738Z,2.30
2018-12-09T01:04:40.282Z,2.10
2018-12-09T01:07:07.870Z,1.87
2018-12-09T01:09:35.526Z,1.80
2018-12-09T01:12:03.054Z,1.77
2018-12-09T01:14:30.954Z,2.60
2018-12-09T01:16:58.537Z,2.33
2018-12-09T01:19:26.103Z,2.40
2018-12-09T01:21:53.795Z,2.50
2018-12-09T01:24:21.302Z,2.40
2018-12-09T01:26:48.878Z,2.50
2018-12-09T01:29:16.571Z,2.77
2018-12-09T01:31:44.231Z,2.70
2018-12-09T01:34:11.803Z,2.23
2018-12-09T01:36:39.432Z,2.13
2018-12-09T01:39:06.986Z,1.97
2018-12-09T01:41:34.528Z,1.00
2018-12-09T01:44:02.177Z,0.70
2018-12-09T01:46:30.064Z,0.80
2018-12-09T01:48:57.798Z,0.80
2018-12-09T01:51:25.396Z,0.60
2018-12-09T01:54:05.069Z,0.90
2018-12-09T01:56:33.237Z,0.90
2018-12-09T01:59:00.788Z,1.30
2018-12-09T02:01:28.375Z,1.30
2018-12-09T02:03:55.901Z,1.50
2018-12-09T02:06:23.509Z,1.43
2018-12-09T02:08:51.142Z,1.60
2018-12-09T02:11:18.886Z,1.80
2018-12-09T02:13:46.402Z,2.10
2018-12-09T02:16:13.953Z,1.80
2018-12-09T02:18:41.483Z,2.07
2018-12-09T02:21:09.274Z,1.90
2018-12-09T02:23:37.141Z,1.97
2018-12-09T02:26:04.707Z,2.10
2018-12-09T02:28:32.230Z,2.60
2018-12-09T02:31:00.122Z,1.97
2018-12-09T02:33:27.658Z,2.20
2018-12-09T02:35:55.414Z,2.00
2018-12-09T02:38:22.983Z,2.30
2018-12-09T02:40:50.498Z,1.90
2018-12-09T02:43:18.319Z,2.40
2018-12-09T02:45:45.852Z,2.60
2018-12-09T02:48:13.640Z,1.93
2018-12-09T02:50:41.208Z,3.13
2018-12-09T02:53:08.993Z,2.67
2018-12-09T02:55:36.688Z,2.67
2018-12-09T02:58:04.431Z,2.53
2018-12-09T03:00:32.905Z,3.33
2018-12-09T03:03:00.523Z,3.30
2018-12-09T03:05:28.047Z,3.03
2018-12-09T03:07:55.623Z,3.20
2018-12-09T03:10:23.172Z,3.10
2018-12-09T03:12:50.701Z,3.60
2018-12-09T03:15:18.590Z,3.20
2018-12-09T03:17:46.426Z,3.17
2018-12-09T03:20:14.003Z,3.67
2018-12-09T03:22:41.532Z,3.80
2018-12-09T03:25:09.267Z,3.80
2018-12-09T03:27:36.843Z,4.10
2018-12-09T03:30:05.208Z,4.33
2018-12-09T03:32:32.857Z,3.60
2018-12-09T03:35:00.721Z,3.97
2018-12-09T03:37:28.557Z,3.67
2018-12-09T03:39:56.153Z,4.30
2018-12-09T03:42:24.323Z,3.60
2018-12-09T03:44:51.938Z,3.77
2018-12-09T03:47:19.502Z,4.00
2018-12-09T03:49:47.243Z,3.77
2018-12-09T03:52:15.143Z,4.03
2018-12-09T03:54:42.702Z,3.53
2018-12-09T03:57:10.283Z,4.10
2018-12-09T03:59:37.827Z,4.10
2018-12-09T04:02:05.415Z,4.30
2018-12-09T04:04:32.967Z,3.63
2018-12-09T04:07:00.642Z,3.80
2018-12-09T04:09:28.453Z,4.47
2018-12-09T04:11:56.010Z,3.67
2018-12-09T04:14:23.679Z,3.70
2018-12-09T04:16:51.407Z,2.90
2018-12-09T04:19:19.248Z,2.80
2018-12-09T04:21:47.147Z,3.50
2018-12-09T04:24:14.726Z,3.90
2018-12-09T04:26:42.261Z,3.50
2018-12-09T04:29:10.028Z,3.37
2018-12-09T04:31:37.704Z,3.50
2018-12-09T04:34:05.304Z,3.07
2018-12-09T04:36:33.085Z,2.97
2018-12-09T04:39:00.642Z,3.00
2018-12-09T04:41:28.196Z,3.07
2018-12-09T04:43:55.737Z,3.17
2018-12-09T04:46:23.333Z,2.50
2018-12-09T04:48:50.855Z,2.97
2018-12-09T04:51:18.787Z,2.60
2018-12-09T04:53:46.313Z,2.50
2018-12-09T04:56:14.190Z,3.37
2018-12-09T04:58:45.833Z,2.57
2018-12-09T05:01:13.681Z,2.73
2018-12-09T05:03:41.238Z,3.20
2018-12-09T05:06:08.778Z,3.33
2018-12-09T05:08:36.381Z,2.60
2018-12-09T05:11:03.923Z,2.63
2018-12-09T05:13:31.462Z,2.97
2018-12-09T05:15:59.022Z,2.40
2018-12-09T05:18:26.569Z,2.40
2018-12-09T05:20:54.143Z,2.23
2018-12-09T05:23:21.808Z,2.30
2018-12-09T05:25:49.349Z,2.40
2018-12-09T05:28:16.957Z,2.40
2018-12-09T05:30:44.586Z,2.03
2018-12-09T05:33:12.122Z,2.00
2018-12-09T05:35:39.797Z,2.30
2018-12-09T05:38:07.613Z,2.17
2018-12-09T05:40:35.739Z,1.90
2018-12-09T05:43:03.336Z,2.40
2018-12-09T05:45:30.893Z,2.17
2018-12-09T05:47:58.493Z,1.50
2018-12-09T05:50:26.029Z,2.63
2018-12-09T05:52:53.747Z,1.90
2018-12-09T05:55:21.298Z,1.60
2018-12-09T05:57:48.829Z,1.30
2018-12-09T06:00:16.375Z,1.50
2018-12-09T06:02:55.507Z,0.97
2018-12-09T06:05:23.075Z,1.00
2018-12-09T06:07:51.053Z,0.90
2018-12-09T06:10:18.588Z,0.80
2018-12-09T06:12:46.161Z,1.03
2018-12-09T06:15:13.719Z,0.93
2018-12-09T06:17:41.458Z,1.00
2018-12-09T06:20:09.474Z,0.97
2018-12-09T06:22:37.078Z,0.90
2018-12-09T06:25:04.960Z,0.87
2018-12-09T06:27:32.617Z,1.00
2018-12-09T06:30:00.536Z,1.00
2018-12-09T06:32:28.704Z,1.10
2018-12-09T06:34:56.688Z,1.40
2018-12-09T06:37:24.272Z,1.30
2018-12-09T06:39:52.156Z,1.20
2018-12-09T06:42:19.728Z,1.80
2018-12-09T06:44:47.674Z,1.70
2018-12-09T06:47:15.305Z,1.50
2018-12-09T06:49:42.858Z,1.63
2018-12-09T06:52:10.923Z,1.60
2018-12-09T06:54:38.448Z,1.80
2018-12-09T06:57:06.002Z,1.63
2018-12-09T06:59:33.592Z,1.97
2018-12-09T07:02:01.119Z,1.23
2018-12-09T07:04:28.699Z,1.70
2018-12-09T07:06:56.484Z,1.27
2018-12-09T07:09:24.054Z,1.20
2018-12-09T07:11:52.169Z,1.10
2018-12-09T07:14:19.713Z,0.93
2018-12-09T07:16:47.444Z,1.23
2018-12-09T07:19:15.433Z,1.30
2018-12-09T07:21:42.993Z,1.50
2018-12-09T07:24:11.268Z,1.37
2018-12-09T07:26:38.859Z,1.17
2018-12-09T07:29:06.393Z,1.07
2018-12-09T07:31:33.977Z,1.50
2018-12-09T07:34:01.529Z,1.67
2018-12-09T07:36:29.089Z,1.60
2018-12-09T07:38:56.753Z,1.87
2018-12-09T07:41:24.399Z,2.20
2018-12-09T07:43:52.243Z,2.17
2018-12-09T07:46:19.802Z,2.73
2018-12-09T07:48:47.343Z,2.70
2018-12-09T07:51:14.953Z,2.57
2018-12-09T07:53:43.322Z,2.67
2018-12-09T07:56:10.869Z,2.37
2018-12-09T07:58:38.394Z,2.13
2018-12-09T08:01:05.982Z,2.10
2018-12-09T08:03:33.614Z,2.00
2018-12-09T08:06:01.146Z,1.63
2018-12-09T08:08:28.947Z,2.20
2018-12-09T08:10:56.500Z,2.30
2018-12-09T08:13:24.013Z,2.57
2018-12-09T08:15:51.861Z,2.87
2018-12-09T08:18:19.373Z,3.43
2018-12-09T08:20:46.923Z,3.90
2018-12-09T08:23:14.563Z,3.80
2018-12-09T08:25:42.343Z,4.17
2018-12-09T08:28:10.057Z,4.50
2018-12-09T08:30:37.619Z,4.80
2018-12-09T08:33:05.455Z,4.57
2018-12-09T08:35:32.975Z,4.87
2018-12-09T08:38:00.653Z,4.67
2018-12-09T08:40:28.393Z,5.07
2018-12-09T08:42:56.404Z,5.10
2018-12-09T08:45:25.125Z,5.47
2018-12-09T08:47:52.643Z,5.33
2018-12-09T08:50:20.550Z,5.33
2018-12-09T08:52:48.074Z,5.60
2018-12-09T08:55:15.937Z,4.97
2018-12-09T08:57:43.699Z,4.13
2018-12-09T09:00:11.301Z,4.50
2018-12-09T09:02:38.849Z,4.80
2018-12-09T09:05:06.439Z,4.27
2018-12-09T09:07:34.188Z,5.30
2018-12-09T09:10:01.745Z,4.60
2018-12-09T09:12:29.318Z,4.40
2018-12-09T09:14:57.005Z,5.47
2018-12-09T09:17:24.659Z,4.37
2018-12-09T09:19:52.483Z,4.70
2018-12-09T09:22:20.024Z,4.90
2018-12-09T09:24:47.695Z,3.50
2018-12-09T09:27:15.362Z,5.10
2018-12-09T09:29:43.012Z,4.03
2018-12-09T09:32:10.560Z,4.40
2018-12-09T09:34:38.237Z,3.87
2018-12-09T09:37:05.943Z,3.83
2018-12-09T09:39:33.509Z,3.93
2018-12-09T09:42:01.259Z,4.43
2018-12-09T09:44:28.902Z,4.70
2018-12-09T09:46:56.449Z,3.87
2018-12-09T09:49:24.122Z,4.00
2018-12-09T09:51:51.807Z,3.60
2018-12-09T09:54:19.347Z,0.93
2018-12-09T09:56:47.033Z,0.90
2018-12-09T09:59:14.615Z,0.90
2018-12-09T10:01:42.273Z,0.70
2018-12-09T10:04:09.848Z,0.60
2018-12-09T10:06:37.431Z,0.50
2018-12-09T10:09:06.161Z,0.30
2018-12-09T10:11:33.786Z,0.50
2018-12-09T10:14:01.430Z,0.53
2018-12-09T10:16:28.989Z,0.67
2018-12-09T10:18:56.763Z,0.70
2018-12-09T10:21:24.572Z,0.87
2018-12-09T10:23:52.282Z,1.90
2018-12-09T10:26:19.972Z,0.90
2018-12-09T10:28:47.708Z,0.60
2018-12-09T10:31:15.308Z,0.80
2018-12-09T10:33:42.862Z,0.80
2018-12-09T10:36:10.736Z,0.90
2018-12-09T10:38:38.583Z,0.80
2018-12-09T10:41:06.222Z,1.10
2018-12-09T10:43:33.829Z,1.60
2018-12-09T10:46:01.576Z,1.67
2018-12-09T10:48:29.107Z,0.90
2018-12-09T10:50:57.163Z,1.00
2018-12-09T10:53:24.894Z,0.70
2018-12-09T10:55:52.458Z,2.20
2018-12-09T10:58:20.079Z,1.90
2018-12-09T11:00:51.897Z,1.50
2018-12-09T11:03:19.972Z,1.20
2018-12-09T11:05:47.497Z,1.40
2018-12-09T11:08:16.640Z,1.10
2018-12-09T11:10:44.660Z,1.20
2018-12-09T11:13:12.176Z,1.30
2018-12-09T11:15:40.108Z,1.30
2018-12-09T11:18:07.643Z,1.10
2018-12-09T11:20:35.182Z,1.37
2018-12-09T11:23:02.733Z,1.30
2018-12-09T11:25:30.418Z,1.43
2018-12-09T11:27:58.024Z,1.40
2018-12-09T11:30:25.549Z,1.50
2018-12-09T11:32:53.141Z,1.90
2018-12-09T11:35:20.774Z,2.30
2018-12-09T11:37:48.463Z,2.40
2018-12-09T11:40:16.143Z,1.67
2018-12-09T11:42:43.710Z,2.07
2018-12-09T11:45:11.225Z,1.70
2018-12-09T11:47:38.805Z,1.83
2018-12-09T11:50:07.688Z,1.70
2018-12-09T11:52:35.271Z,0.93
2018-12-09T11:55:03.111Z,1.10
2018-12-09T11:57:30.687Z,0.90
2018-12-09T11:59:58.190Z,0.60
2018-12-09T12:02:25.756Z,1.20
2018-12-09T12:04:53.365Z,0.90
2018-12-09T12:07:21.023Z,1.20
2018-12-09T12:09:48.690Z,1.00
2018-12-09T12:12:16.324Z,0.60
2018-12-09T12:14:43.881Z,1.10
2018-12-09T12:17:11.573Z,1.20
2018-12-09T12:19:39.304Z,1.40
2018-12-09T12:22:06.892Z,1.50
2018-12-09T12:24:34.437Z,1.40
2018-12-09T12:27:02.169Z,1.37
2018-12-09T12:29:29.689Z,1.10
2018-12-09T12:31:57.226Z,2.77
2018-12-09T12:34:24.887Z,3.20
2018-12-09T12:36:52.449Z,1.87
2018-12-09T12:39:20.102Z,7.80
2018-12-09T12:41:47.768Z,1.50
2018-12-09T12:44:15.465Z,1.53
2018-12-09T12:46:43.104Z,2.43
2018-12-09T12:49:10.645Z,2.20
2018-12-09T12:51:38.166Z,1.90
2018-12-09T12:54:05.887Z,2.10
2018-12-09T12:56:33.796Z,1.33
2018-12-09T12:59:01.550Z,2.17
2018-12-09T13:01:29.091Z,1.90
2018-12-09T13:03:56.770Z,1.80
2018-12-09T13:06:24.753Z,2.00
2018-12-09T13:08:52.322Z,1.90
2018-12-09T13:11:19.890Z,3.05
2018-12-09T13:13:47.770Z,2.60
2018-12-09T13:16:15.378Z,1.90
2018-12-09T13:18:43.004Z,1.90
2018-12-09T13:21:10.565Z,2.30
2018-12-09T13:23:38.421Z,2.57
2018-12-09T13:26:06.185Z,2.13
2018-12-09T13:28:33.720Z,3.83
2018-12-09T13:31:01.480Z,3.83
2018-12-09T13:33:29.167Z,2.90
2018-12-09T13:35:56.670Z,2.80
2018-12-09T13:38:24.215Z,3.37
2018-12-09T13:40:51.839Z,2.83
2018-12-09T13:43:19.403Z,2.90
2018-12-09T13:45:46.969Z,2.20
2018-12-09T13:48:14.873Z,2.20
2018-12-09T13:50:42.509Z,4.17
2018-12-09T13:53:10.085Z,2.63
2018-12-09T13:55:37.708Z,3.10
2018-12-09T13:58:05.261Z,3.00
2018-12-09T14:00:33.124Z,2.40
2018-12-09T14:03:01.308Z,2.97
2018-12-09T14:05:28.976Z,3.40
2018-12-09T14:07:56.574Z,2.83
2018-12-09T14:10:24.175Z,2.83
2018-12-09T14:12:51.705Z,3.87
2018-12-09T14:15:19.274Z,4.33
2018-12-09T14:17:47.059Z,3.90
2018-12-09T14:20:14.960Z,6.17
2018-12-09T14:22:42.540Z,3.50
2018-12-09T14:25:10.090Z,3.43
2018-12-09T14:27:37.765Z,3.10
2018-12-09T14:30:06.233Z,3.50
2018-12-09T14:32:33.784Z,3.07
2018-12-09T14:35:01.391Z,3.47
2018-12-09T14:37:29.024Z,3.70
2018-12-09T14:39:56.610Z,4.00
2018-12-09T14:42:24.229Z,4.20
2018-12-09T14:44:51.860Z,3.53
2018-12-09T14:47:19.925Z,3.50
2018-12-09T14:49:47.458Z,4.40
2018-12-09T14:52:15.211Z,4.27
2018-12-09T14:54:42.748Z,3.40
2018-12-09T14:57:10.761Z,4.63
2018-12-09T14:59:38.804Z,5.07
2018-12-09T15:02:06.930Z,4.50
2018-12-09T15:04:34.488Z,5.83
2018-12-09T15:07:02.108Z,5.47
2018-12-09T15:09:29.864Z,4.40
2018-12-09T15:11:57.519Z,4.03
2018-12-09T15:14:25.154Z,3.90
2018-12-09T15:16:52.736Z,3.77
2018-12-09T15:19:20.309Z,3.57
2018-12-09T15:21:47.850Z,4.20
2018-12-09T15:24:15.801Z,3.00
2018-12-09T15:26:43.329Z,2.80
2018-12-09T15:29:11.194Z,2.93
2018-12-09T15:31:38.730Z,3.33
2018-12-09T15:34:06.278Z,3.57
2018-12-09T15:36:33.870Z,4.27
2018-12-09T15:39:01.455Z,3.60
2018-12-09T15:41:29.009Z,3.70
2018-12-09T15:43:56.860Z,4.93
2018-12-09T15:46:24.574Z,4.57
2018-12-09T15:48:52.143Z,5.20
2018-12-09T15:51:19.698Z,5.27
2018-12-09T15:53:47.424Z,5.70
2018-12-09T15:56:15.323Z,4.37
2018-12-09T15:58:43.130Z,4.60
2018-12-09T16:01:10.690Z,4.40
2018-12-09T16:03:38.370Z,3.30
2018-12-09T16:06:05.989Z,3.43
2018-12-09T16:08:33.630Z,4.27
2018-12-09T16:11:01.169Z,4.03
2018-12-09T16:13:29.001Z,3.90
2018-12-09T16:15:56.629Z,4.87
2018-12-09T16:18:24.439Z,4.40
2018-12-09T16:20:52.014Z,4.97
2018-12-09T16:23:19.954Z,4.30
2018-12-09T16:25:47.730Z,4.77
2018-12-09T16:28:15.299Z,4.37
2018-12-09T16:30:42.964Z,6.10
2018-12-09T16:33:10.615Z,5.27
2018-12-09T16:35:38.358Z,4.97
2018-12-09T16:38:05.924Z,5.00
2018-12-09T16:40:33.573Z,4.40
2018-12-09T16:43:01.301Z,4.13
2018-12-09T16:45:28.858Z,3.80
2018-12-09T16:47:56.538Z,3.80
2018-12-09T16:50:24.138Z,3.97
2018-12-09T16:52:51.649Z,3.90
2018-12-09T16:55:19.429Z,4.57
2018-12-09T16:57:46.973Z,4.37
2018-12-09T17:00:14.900Z,3.40
2018-12-09T17:02:42.703Z,3.40
2018-12-09T17:05:10.243Z,3.20
2018-12-09T17:07:42.118Z,3.63
2018-12-09T17:10:07.409Z,3.10
2018-12-09T17:12:35.000Z,2.70
2018-12-09T17:15:03.134Z,2.47
2018-12-09T17:17:30.685Z,1.80
2018-12-09T17:20:05.906Z,2.37
2018-12-09T17:22:28.070Z,2.27
2018-12-09T17:24:55.617Z,2.30
2018-12-09T17:27:23.165Z,2.33
2018-12-09T17:29:50.704Z,2.00
2018-12-09T17:32:18.320Z,1.70
2018-12-09T17:34:45.899Z,2.47
2018-12-09T17:37:13.625Z,2.03
2018-12-09T17:39:41.345Z,1.93
2018-12-09T17:42:09.080Z,2.23
2018-12-09T17:44:36.818Z,2.47
2018-12-09T17:47:04.534Z,2.20
2018-12-09T17:49:32.131Z,2.13
2018-12-09T17:51:59.806Z,1.97
2018-12-09T17:54:27.351Z,2.60
2018-12-09T17:56:54.988Z,1.97
2018-12-09T17:59:22.509Z,1.87
2018-12-09T18:01:50.157Z,2.40
2018-12-09T18:04:17.961Z,1.73
2018-12-09T18:06:45.639Z,2.33
2018-12-09T18:09:13.160Z,2.30
2018-12-09T18:11:40.798Z,1.87
2018-12-09T18:14:08.586Z,2.00
2018-12-09T18:16:36.103Z,2.80
2018-12-09T18:19:03.666Z,2.37
2018-12-09T18:21:31.231Z,2.23
2018-12-09T18:23:59.176Z,2.73
2018-12-09T18:26:26.712Z,2.40
2018-12-09T18:28:54.374Z,2.30
2018-12-09T18:31:22.310Z,1.93
2018-12-09T18:33:49.854Z,2.30
2018-12-09T18:36:17.609Z,2.20
2018-12-09T18:38:45.193Z,2.20
2018-12-09T18:41:12.864Z,2.03
2018-12-09T18:43:40.641Z,2.57
2018-12-09T18:46:08.190Z,1.97
2018-12-09T18:48:35.828Z,2.30
2018-12-09T18:51:03.623Z,2.73
2018-12-09T18:53:31.235Z,1.80
2018-12-09T18:55:59.015Z,2.33
2018-12-09T18:58:26.757Z,2.20
2018-12-09T19:00:54.480Z,2.20
2018-12-09T19:03:22.139Z,2.20
2018-12-09T19:05:50.368Z,2.63
2018-12-09T19:08:18.190Z,2.33
2018-12-09T19:10:45.940Z,2.10
2018-12-09T19:13:13.516Z,2.10
2018-12-09T19:15:41.090Z,2.43
2018-12-09T19:18:08.860Z,2.17
2018-12-09T19:20:36.419Z,2.20
2018-12-09T19:23:04.000Z,2.57
2018-12-09T19:25:31.561Z,2.00
2018-12-09T19:27:59.274Z,2.00
2018-12-09T19:30:26.830Z,2.50
2018-12-09T19:32:54.590Z,2.20
2018-12-09T19:35:22.205Z,2.83
2018-12-09T19:37:49.810Z,2.60
2018-12-09T19:40:17.577Z,2.17
2018-12-09T19:42:45.102Z,2.50
2018-12-09T19:45:12.666Z,2.40
2018-12-09T19:47:40.215Z,2.93
2018-12-09T19:50:07.826Z,2.90
2018-12-09T19:52:35.575Z,3.13
2018-12-09T19:55:03.112Z,3.50
2018-12-09T19:57:30.674Z,2.83
2018-12-09T19:59:58.224Z,2.43
2018-12-09T20:02:25.850Z,2.93
2018-12-09T20:04:53.412Z,3.77
2018-12-09T20:07:20.995Z,2.60
2018-12-09T20:09:48.660Z,2.67
2018-12-09T20:12:16.276Z,2.97
2018-12-09T20:14:44.110Z,3.17
2018-12-09T20:17:11.784Z,3.20
2018-12-09T20:19:39.720Z,2.43
2018-12-09T20:22:07.279Z,3.37
2018-12-09T20:24:34.964Z,3.27
2018-12-09T20:27:02.520Z,2.83
2018-12-09T20:29:30.081Z,3.30
2018-12-09T20:31:57.646Z,3.30
2018-12-09T20:34:25.231Z,2.83
2018-12-09T20:36:52.829Z,2.97
2018-12-09T20:39:20.838Z,3.43
2018-12-09T20:41:48.414Z,3.50
2018-12-09T20:44:15.950Z,3.10
2018-12-09T20:46:43.799Z,2.83
2018-12-09T20:49:11.395Z,2.93
2018-12-09T20:51:39.140Z,2.70
2018-12-09T20:54:06.678Z,3.13
2018-12-09T20:56:34.255Z,2.93
2018-12-09T20:59:01.819Z,2.67
2018-12-09T21:01:29.352Z,2.20
2018-12-09T21:03:57.091Z,3.70
2018-12-09T21:06:24.817Z,2.50
2018-12-09T21:08:53.584Z,2.70
2018-12-09T21:11:21.150Z,3.00
2018-12-09T21:13:48.895Z,4.03
2018-12-09T21:16:16.583Z,2.90
2018-12-09T21:18:44.143Z,2.53
2018-12-09T21:21:11.660Z,2.80
2018-12-09T21:23:39.440Z,2.70
2018-12-09T21:26:07.031Z,2.77
2018-12-09T21:28:34.593Z,3.17
2018-12-09T21:31:02.195Z,3.20
2018-12-09T21:33:29.763Z,2.80
2018-12-09T21:35:57.624Z,3.03
2018-12-09T21:38:25.133Z,3.23
2018-12-09T21:40:52.788Z,2.77
2018-12-09T21:43:20.535Z,3.70
2018-12-09T21:45:48.095Z,2.93
2018-12-09T21:48:15.671Z,3.10
2018-12-09T21:50:43.205Z,2.63
2018-12-09T21:53:10.750Z,3.20
2018-12-09T21:55:38.348Z,3.60
2018-12-09T21:58:06.034Z,3.60
2018-12-09T22:00:33.580Z,3.80
2018-12-09T22:03:01.459Z,3.57
2018-12-09T22:05:29.006Z,3.27
2018-12-09T22:07:56.558Z,3.30
2018-12-09T22:10:24.088Z,3.57
2018-12-09T22:12:51.899Z,2.67
2018-12-09T22:15:19.434Z,2.90
2018-12-09T22:17:47.319Z,3.47
2018-12-09T22:20:14.868Z,3.33
2018-12-09T22:22:42.416Z,3.20
2018-12-09T22:25:09.975Z,3.30
2018-12-09T22:27:37.545Z,3.40
2018-12-09T22:30:05.132Z,3.40
2018-12-09T22:32:32.710Z,3.43
2018-12-09T22:35:00.259Z,3.23
2018-12-09T22:37:27.803Z,3.47
2018-12-09T22:39:55.500Z,3.87
2018-12-09T22:42:23.058Z,3.50
2018-12-09T22:44:50.613Z,2.87
2018-12-09T22:47:18.272Z,3.13
2018-12-09T22:49:45.810Z,3.30
2018-12-09T22:52:13.351Z,3.27
2018-12-09T22:54:41.077Z,2.63
2018-12-09T22:57:08.740Z,3.20
2018-12-09T22:59:36.308Z,4.47
2018-12-09T23:02:09.700Z,3.63
2018-12-09T23:04:37.262Z,3.73
2018-12-09T23:07:10.652Z,3.47
2018-12-09T23:09:38.428Z,4.10
2018-12-09T23:12:05.975Z,3.60
2018-12-09T23:14:33.778Z,3.27
2018-12-09T23:17:01.348Z,3.17
2018-12-09T23:19:28.899Z,2.93
2018-12-09T23:21:56.644Z,3.97
2018-12-09T23:24:24.194Z,3.27
2018-12-09T23:26:52.137Z,3.80
2018-12-09T23:29:19.686Z,3.07
2018-12-09T23:31:47.175Z,3.70
2018-12-09T23:34:14.749Z,3.00
2018-12-09T23:36:42.257Z,2.87
2018-12-09T23:39:09.816Z,3.17
2018-12-09T23:41:37.663Z,2.93
2018-12-09T23:44:05.243Z,3.10
2018-12-09T23:46:32.981Z,2.80
2018-12-09T23:49:00.516Z,3.00
2018-12-09T23:51:28.118Z,3.03
2018-12-09T23:53:55.660Z,2.87
2018-12-09T23:56:23.463Z,3.03
2018-12-09T23:58:51.196Z,3.13
